Providence, Rhode Island
Traffic Map
Current Weather Conditions
Providence, Rhode Island
Broken Clouds Light Rain
Broken Clouds
57°
Feels Like: 57°
Wind Chill: 57° Ceiling: 6000
Heat Index: 57° Visibility: 10mi
Dew Point: 33° Wind: 15mph
Humidity: 40% Direction: 330° (NNW)
Pressure: 29.56in Gusts: 24mph
Raw Report DataKPVD 271751Z 33013G21KT 10SM -RA BKN060 14/01 A2956 RMK AO2 RAB49 SLP011 P0000 60000 T01390006 10161 20100 56011
Traffic Incident Summary
Active as of:
Severity:
Category:
InformationThere was an issue retrieving the traffic information for this location. Please try a different location or try again shortly.
Advertisements
Track Severe Weather on mobile